createdAt,value
2019-03-13T00:01:06.331Z,1.27
2019-03-13T00:03:35.762Z,0.97
2019-03-13T00:06:05.209Z,1.37
2019-03-13T00:08:34.641Z,1.17
2019-03-13T00:11:04.160Z,2.47
2019-03-13T00:13:33.607Z,0.80
2019-03-13T00:16:03.071Z,0.80
2019-03-13T00:18:32.494Z,0.70
2019-03-13T00:21:01.942Z,0.90
2019-03-13T00:23:31.376Z,0.90
2019-03-13T00:26:00.830Z,0.90
2019-03-13T00:28:30.269Z,0.63
2019-03-13T00:30:59.711Z,0.60
2019-03-13T00:33:29.150Z,0.50
2019-03-13T00:35:58.683Z,0.50
2019-03-13T00:38:28.205Z,0.40
2019-03-13T00:40:57.654Z,0.47
2019-03-13T00:43:27.094Z,0.30
2019-03-13T00:45:56.536Z,0.20
2019-03-13T00:48:25.975Z,0.30
2019-03-13T00:50:55.420Z,0.23
2019-03-13T00:53:24.905Z,0.20
2019-03-13T00:55:54.476Z,0.20
2019-03-13T00:58:25.398Z,0.10
2019-03-13T01:01:12.948Z,0.10
2019-03-13T01:03:44.090Z,0.10
2019-03-13T01:06:13.271Z,0.00
2019-03-13T01:08:42.706Z,0.17
2019-03-13T01:11:12.157Z,0.10
2019-03-13T01:13:41.820Z,0.00
2019-03-13T01:16:11.258Z,0.10
2019-03-13T01:18:40.692Z,0.20
2019-03-13T01:21:10.131Z,0.00
2019-03-13T01:23:39.566Z,0.10
2019-03-13T01:26:08.986Z,0.00
2019-03-13T01:28:38.438Z,0.10
2019-03-13T01:31:21.533Z,0.20
2019-03-13T01:33:50.968Z,0.10
2019-03-13T01:36:20.406Z,0.20
2019-03-13T01:38:49.836Z,0.10
2019-03-13T01:41:19.271Z,0.20
2019-03-13T01:43:48.732Z,0.10
2019-03-13T01:46:18.139Z,0.10
2019-03-13T01:48:47.579Z,0.10
2019-03-13T01:51:17.011Z,0.10
2019-03-13T01:53:46.449Z,0.10
2019-03-13T01:56:15.877Z,0.20
2019-03-13T01:58:45.327Z,0.20
2019-03-13T02:01:14.742Z,0.10
2019-03-13T02:35:56.971Z,0.17
2019-03-13T02:38:26.413Z,0.20
2019-03-13T02:40:55.846Z,0.17
2019-03-13T02:43:25.289Z,0.20
2019-03-13T02:45:54.697Z,0.20
2019-03-13T02:48:24.232Z,0.30
2019-03-13T02:50:53.730Z,0.17
2019-03-13T02:53:23.139Z,0.30
2019-03-13T02:55:52.573Z,0.20
2019-03-13T02:58:21.992Z,0.20
2019-03-13T03:00:58.750Z,0.30
2019-03-13T03:03:27.943Z,0.27
2019-03-13T03:05:59.079Z,0.27
2019-03-13T03:08:28.808Z,0.27
2019-03-13T03:10:58.286Z,0.50
2019-03-13T03:13:27.744Z,0.30
2019-03-13T03:15:57.158Z,0.20
2019-03-13T03:18:26.603Z,0.30
2019-03-13T03:20:56.022Z,0.30
2019-03-13T03:23:25.447Z,0.30
2019-03-13T03:25:55.149Z,0.40
2019-03-13T03:28:24.616Z,0.13
2019-03-13T03:30:54.002Z,0.37
2019-03-13T03:33:23.436Z,0.20
2019-03-13T03:35:52.887Z,0.40
2019-03-13T03:38:22.360Z,0.40
2019-03-13T03:40:52.013Z,0.30
2019-03-13T03:43:21.453Z,0.30
2019-03-13T03:45:51.201Z,0.20
2019-03-13T03:48:20.630Z,0.30
2019-03-13T03:50:50.057Z,0.30
2019-03-13T03:53:19.492Z,0.40
2019-03-13T03:55:48.912Z,0.33
2019-03-13T03:58:18.342Z,0.30
2019-03-13T04:00:47.762Z,0.20
2019-03-13T04:03:17.431Z,0.30
2019-03-13T04:05:46.932Z,0.30
2019-03-13T04:08:16.351Z,0.40
2019-03-13T04:10:45.786Z,0.30
2019-03-13T04:13:15.214Z,0.40
2019-03-13T04:15:44.696Z,0.50
2019-03-13T04:18:14.130Z,0.30
2019-03-13T04:20:43.556Z,0.50
2019-03-13T04:23:12.999Z,0.70
2019-03-13T04:25:42.422Z,0.47
2019-03-13T04:28:11.851Z,0.47
2019-03-13T04:30:41.365Z,0.40
2019-03-13T04:33:10.789Z,0.30
2019-03-13T04:35:40.293Z,0.30
2019-03-13T04:38:09.711Z,0.30
2019-03-13T04:40:39.142Z,0.50
2019-03-13T04:43:08.564Z,0.40
2019-03-13T04:45:37.994Z,0.40
2019-03-13T04:48:07.414Z,0.40
2019-03-13T04:50:36.924Z,0.53
2019-03-13T04:53:06.338Z,0.37
2019-03-13T04:55:35.770Z,0.20
2019-03-13T04:58:05.194Z,0.53
2019-03-13T05:00:34.620Z,0.40
2019-03-13T05:03:04.049Z,0.40
2019-03-13T05:05:47.975Z,0.47
2019-03-13T05:08:24.950Z,0.50
2019-03-13T05:10:54.377Z,0.60
2019-03-13T05:13:23.799Z,0.50
2019-03-13T05:15:53.230Z,0.33
2019-03-13T05:18:22.657Z,0.40
2019-03-13T05:20:52.114Z,0.50
2019-03-13T05:23:21.538Z,0.50
2019-03-13T05:25:50.974Z,0.53
2019-03-13T05:28:20.404Z,0.53
2019-03-13T05:30:52.977Z,0.40
2019-03-13T05:33:20.985Z,0.70
2019-03-13T05:35:50.422Z,0.60
2019-03-13T05:38:19.842Z,0.40
2019-03-13T05:40:49.273Z,0.60
2019-03-13T05:43:18.688Z,0.53
2019-03-13T05:45:48.129Z,0.50
2019-03-13T05:48:17.547Z,0.73
2019-03-13T05:50:46.985Z,0.50
2019-03-13T05:53:16.403Z,0.40
2019-03-13T05:55:45.905Z,0.43
2019-03-13T05:58:15.331Z,0.30
2019-03-13T06:00:44.763Z,0.40
2019-03-13T06:03:14.197Z,0.37
2019-03-13T06:05:43.632Z,0.30
2019-03-13T06:08:13.049Z,0.40
2019-03-13T06:10:42.490Z,0.43
2019-03-13T06:13:11.911Z,0.50
2019-03-13T06:15:41.411Z,0.47
2019-03-13T06:18:10.835Z,0.40
2019-03-13T06:20:40.268Z,0.60
2019-03-13T06:23:09.691Z,0.60
2019-03-13T06:25:39.127Z,0.40
2019-03-13T06:28:08.556Z,0.40
2019-03-13T06:30:37.984Z,0.63
2019-03-13T06:33:07.406Z,0.50
2019-03-13T06:35:36.835Z,0.50
2019-03-13T06:38:06.260Z,0.40
2019-03-13T06:40:36.027Z,0.63
2019-03-13T06:43:05.518Z,0.57
2019-03-13T06:45:34.950Z,0.37
2019-03-13T06:48:04.645Z,0.47
2019-03-13T06:50:34.082Z,0.50
2019-03-13T06:53:03.503Z,0.50
2019-03-13T06:55:32.937Z,0.50
2019-03-13T06:58:02.365Z,0.50
2019-03-13T07:00:51.646Z,0.50
2019-03-13T07:03:20.833Z,0.40
2019-03-13T07:06:03.741Z,0.60
2019-03-13T07:08:50.826Z,0.83
2019-03-13T07:11:21.898Z,0.50
2019-03-13T07:14:10.599Z,0.50
2019-03-13T07:16:57.024Z,0.70
2019-03-13T07:19:44.148Z,0.50
2019-03-13T07:22:17.952Z,0.60
2019-03-13T07:24:54.775Z,0.47
2019-03-13T07:27:28.811Z,0.37
2019-03-13T07:30:07.206Z,0.50
2019-03-13T07:32:41.054Z,0.40
2019-03-13T07:35:12.182Z,0.50
2019-03-13T07:37:43.257Z,0.50
2019-03-13T07:40:20.167Z,0.40
2019-03-13T07:42:54.179Z,0.70
2019-03-13T07:45:31.007Z,0.50
2019-03-13T07:48:18.489Z,0.50
2019-03-13T07:50:47.684Z,0.40
2019-03-13T07:53:24.717Z,0.53
2019-03-13T07:56:12.427Z,0.70
2019-03-13T07:58:44.358Z,0.90
2019-03-13T08:01:15.430Z,0.60
2019-03-13T08:03:46.492Z,0.50
2019-03-13T08:06:32.607Z,0.50
2019-03-13T08:09:21.858Z,0.57
2019-03-13T08:11:53.614Z,0.57
2019-03-13T08:14:33.265Z,0.37
2019-03-13T08:17:07.031Z,0.60
2019-03-13T08:19:38.882Z,0.50
2019-03-13T08:22:12.613Z,0.77
2019-03-13T08:24:46.422Z,2.83
2019-03-13T08:27:23.114Z,0.70
2019-03-13T08:29:57.238Z,0.40
2019-03-13T08:32:29.160Z,0.50
2019-03-13T08:35:14.995Z,0.30
2019-03-13T08:37:46.113Z,1.00
2019-03-13T08:40:17.333Z,0.50
2019-03-13T08:42:48.443Z,0.67
2019-03-13T08:45:17.683Z,0.40
2019-03-13T08:47:59.572Z,0.30
2019-03-13T08:50:31.057Z,0.40
2019-03-13T08:53:02.091Z,0.60
2019-03-13T08:55:33.191Z,0.50
2019-03-13T08:58:07.108Z,1.00
2019-03-13T09:00:38.182Z,0.37
2019-03-13T09:03:14.828Z,0.57
2019-03-13T09:06:01.772Z,0.50
2019-03-13T09:08:41.374Z,0.30
2019-03-13T09:11:15.433Z,0.53
2019-03-13T09:14:02.666Z,0.33
2019-03-13T09:16:33.772Z,0.57
2019-03-13T09:19:04.845Z,0.60
2019-03-13T09:21:35.908Z,0.70
2019-03-13T09:24:12.794Z,0.60
2019-03-13T09:26:52.889Z,0.57
2019-03-13T09:29:26.793Z,0.60
2019-03-13T09:31:57.889Z,0.30
2019-03-13T09:34:34.645Z,0.70
2019-03-13T09:37:17.963Z,0.67
2019-03-13T09:39:54.734Z,0.47
2019-03-13T09:42:25.839Z,0.40
2019-03-13T09:45:02.658Z,1.23
2019-03-13T09:47:42.312Z,0.70
2019-03-13T09:50:26.154Z,0.80
2019-03-13T09:52:57.461Z,0.73
2019-03-13T09:55:31.260Z,0.63
2019-03-13T09:58:04.984Z,0.80
2019-03-13T10:00:44.737Z,0.60
2019-03-13T10:03:15.831Z,0.37
2019-03-13T10:05:46.888Z,0.60
2019-03-13T10:08:24.467Z,0.67
2019-03-13T10:11:11.745Z,0.60
2019-03-13T10:13:58.650Z,0.40
2019-03-13T10:16:32.362Z,0.60
2019-03-13T10:19:05.885Z,0.60
2019-03-13T10:21:55.378Z,0.50
2019-03-13T10:24:32.383Z,0.50
2019-03-13T10:27:03.460Z,0.50
2019-03-13T10:29:37.275Z,0.50
2019-03-13T10:32:23.666Z,0.70
2019-03-13T10:34:57.805Z,0.60
2019-03-13T10:37:34.813Z,0.50
2019-03-13T10:40:24.328Z,0.53
2019-03-13T10:42:53.781Z,0.50
2019-03-13T10:45:22.949Z,0.70
2019-03-13T10:47:52.151Z,0.80
2019-03-13T10:50:28.666Z,0.63
2019-03-13T10:52:59.737Z,0.70
2019-03-13T10:55:32.196Z,0.63
2019-03-13T10:58:03.276Z,0.80
2019-03-13T11:00:52.403Z,0.67
2019-03-13T11:03:23.482Z,0.60
2019-03-13T11:05:54.544Z,0.57
2019-03-13T11:08:38.815Z,1.30
2019-03-13T11:11:13.860Z,0.60
2019-03-13T11:13:50.632Z,0.70
2019-03-13T11:16:24.117Z,0.70
2019-03-13T11:19:04.083Z,0.80
2019-03-13T11:21:43.868Z,0.60
2019-03-13T11:24:26.963Z,0.73
2019-03-13T11:27:11.030Z,0.63
2019-03-13T11:30:00.499Z,0.60
2019-03-13T11:32:37.513Z,0.67
2019-03-13T11:35:18.436Z,0.70
2019-03-13T11:37:54.989Z,0.90
2019-03-13T11:40:26.137Z,0.63
2019-03-13T11:43:02.944Z,0.80
2019-03-13T11:45:50.498Z,0.60
2019-03-13T11:48:22.149Z,1.13
2019-03-13T11:50:59.217Z,0.97
2019-03-13T11:53:34.378Z,0.70
2019-03-13T11:56:17.450Z,0.70
2019-03-13T11:58:51.167Z,0.90
2019-03-13T12:01:31.054Z,0.70
2019-03-13T12:04:00.250Z,0.80
2019-03-13T12:06:31.334Z,0.80
2019-03-13T12:09:06.530Z,0.63
2019-03-13T12:11:40.303Z,0.90
2019-03-13T12:14:27.497Z,0.70
2019-03-13T12:17:01.382Z,0.80
2019-03-13T12:19:35.585Z,0.80
2019-03-13T12:22:04.792Z,1.03
2019-03-13T12:24:39.458Z,0.70
2019-03-13T12:27:17.168Z,0.80
2019-03-13T12:30:04.117Z,0.73
2019-03-13T12:32:42.329Z,0.87
2019-03-13T12:35:16.125Z,0.77
2019-03-13T12:38:03.455Z,0.70
2019-03-13T12:40:43.223Z,0.60
2019-03-13T12:43:14.304Z,0.73
2019-03-13T12:46:03.758Z,0.90
2019-03-13T12:48:43.583Z,1.00
2019-03-13T12:51:17.089Z,0.80
2019-03-13T12:53:48.152Z,0.67
2019-03-13T12:56:22.862Z,0.70
2019-03-13T12:59:02.894Z,0.80
2019-03-13T13:01:33.966Z,0.83
2019-03-13T13:04:11.829Z,0.90
2019-03-13T13:06:51.756Z,0.60
2019-03-13T13:09:40.641Z,1.00
2019-03-13T13:12:14.486Z,0.90
2019-03-13T13:14:57.634Z,1.37
2019-03-13T13:17:34.163Z,0.60
2019-03-13T13:20:04.944Z,1.10
2019-03-13T13:22:34.394Z,0.90
2019-03-13T13:25:04.289Z,0.87
2019-03-13T13:27:33.729Z,1.00
2019-03-13T13:30:03.831Z,0.90
2019-03-13T13:32:33.262Z,0.70
2019-03-13T13:35:03.071Z,1.00
2019-03-13T13:37:32.502Z,0.93
2019-03-13T13:40:01.930Z,0.90
2019-03-13T13:42:31.365Z,0.70
2019-03-13T13:45:00.786Z,0.77
2019-03-13T13:47:30.221Z,0.80
2019-03-13T13:50:00.185Z,1.00
2019-03-13T13:52:29.752Z,1.20
2019-03-13T13:54:59.173Z,1.10
2019-03-13T13:57:28.629Z,1.10
2019-03-13T13:59:59.406Z,1.37
2019-03-13T14:02:28.967Z,0.93
2019-03-13T14:04:58.387Z,0.80
2019-03-13T14:07:27.904Z,1.30
2019-03-13T14:09:57.602Z,1.00
2019-03-13T14:12:27.051Z,0.90
2019-03-13T14:14:56.480Z,0.80
2019-03-13T14:17:25.903Z,0.83
2019-03-13T14:19:55.327Z,0.87
2019-03-13T14:22:24.771Z,0.70
2019-03-13T14:24:54.204Z,0.87
2019-03-13T14:27:23.660Z,0.97
2019-03-13T14:29:53.092Z,1.00
2019-03-13T14:32:22.537Z,0.70
2019-03-13T14:34:52.261Z,0.70
2019-03-13T14:37:21.697Z,0.63
2019-03-13T14:39:51.132Z,0.60
2019-03-13T14:42:20.573Z,0.73
2019-03-13T14:44:50.007Z,0.90
2019-03-13T14:47:19.435Z,0.80
2019-03-13T14:49:48.869Z,0.70
2019-03-13T14:52:18.306Z,0.80
2019-03-13T14:54:47.736Z,0.77
2019-03-13T14:57:17.164Z,0.80
2019-03-13T14:59:46.594Z,0.70
2019-03-13T15:02:16.268Z,0.60
2019-03-13T15:04:45.696Z,0.70
2019-03-13T15:07:15.146Z,1.10
2019-03-13T15:09:44.566Z,1.03
2019-03-13T15:12:13.995Z,0.63
2019-03-13T15:14:43.438Z,0.80
2019-03-13T15:17:12.852Z,0.80
2019-03-13T15:19:42.291Z,1.00
2019-03-13T15:22:11.968Z,0.90
2019-03-13T15:24:41.402Z,0.80
2019-03-13T15:27:10.843Z,0.90
2019-03-13T15:29:40.281Z,0.80
2019-03-13T15:32:09.715Z,1.00
2019-03-13T15:34:41.500Z,0.90
2019-03-13T15:37:10.318Z,0.93
2019-03-13T15:39:39.766Z,0.90
2019-03-13T15:42:09.190Z,1.20
2019-03-13T15:44:38.629Z,0.90
2019-03-13T15:47:08.061Z,0.60
2019-03-13T15:49:37.500Z,0.80
2019-03-13T15:52:06.925Z,0.90
2019-03-13T15:54:36.370Z,0.60
2019-03-13T15:57:06.083Z,1.00
2019-03-13T15:59:35.792Z,1.00
2019-03-13T16:02:05.371Z,0.70
2019-03-13T16:04:34.818Z,0.63
2019-03-13T16:07:04.251Z,1.27
2019-03-13T16:09:33.695Z,0.97
2019-03-13T16:12:03.133Z,0.90
2019-03-13T16:14:32.580Z,0.87
2019-03-13T16:17:03.548Z,1.00
2019-03-13T16:19:33.002Z,1.00
2019-03-13T16:22:03.711Z,0.83
2019-03-13T16:24:33.151Z,0.97
2019-03-13T16:27:02.584Z,0.90
2019-03-13T16:29:32.024Z,0.90
2019-03-13T16:32:01.737Z,0.77
2019-03-13T16:34:31.171Z,0.73
2019-03-13T16:37:00.599Z,1.17
2019-03-13T16:39:30.106Z,0.90
2019-03-13T16:41:59.533Z,0.70
2019-03-13T16:44:29.269Z,1.00
2019-03-13T16:46:58.698Z,0.80
2019-03-13T16:49:28.131Z,0.77
2019-03-13T16:51:57.565Z,0.97
2019-03-13T16:54:27.292Z,0.73
2019-03-13T16:56:56.950Z,1.10
2019-03-13T16:59:26.385Z,0.90
2019-03-13T17:01:55.834Z,1.30
2019-03-13T17:04:25.269Z,0.87
2019-03-13T17:06:54.698Z,0.80
2019-03-13T17:09:24.140Z,0.60
2019-03-13T17:11:53.574Z,0.90
2019-03-13T17:14:23.008Z,0.97
2019-03-13T17:16:52.439Z,0.70
2019-03-13T17:19:21.871Z,1.03
2019-03-13T17:21:51.297Z,0.87
2019-03-13T17:24:20.737Z,1.10
2019-03-13T17:26:50.166Z,0.83
2019-03-13T17:29:19.602Z,0.70
2019-03-13T17:31:49.027Z,0.73
2019-03-13T17:34:18.455Z,0.70
2019-03-13T17:36:47.881Z,0.77
2019-03-13T17:39:17.317Z,1.10
2019-03-13T17:41:46.752Z,0.70
2019-03-13T17:44:16.185Z,0.93
2019-03-13T17:46:45.608Z,0.87
2019-03-13T17:49:15.116Z,0.60
2019-03-13T17:51:44.547Z,0.60
2019-03-13T17:54:13.998Z,0.90
2019-03-13T17:56:43.922Z,0.90
2019-03-13T17:59:13.350Z,0.77
2019-03-13T18:01:42.792Z,0.83
2019-03-13T18:04:12.223Z,0.90
2019-03-13T18:06:41.753Z,0.93
2019-03-13T18:09:11.140Z,0.90
2019-03-13T18:11:40.577Z,1.00
2019-03-13T18:14:10.005Z,1.03
2019-03-13T18:16:39.436Z,0.90
2019-03-13T18:19:08.859Z,1.20
2019-03-13T18:21:38.379Z,0.90
2019-03-13T18:24:07.810Z,1.00
2019-03-13T18:26:37.250Z,1.30
2019-03-13T18:29:06.666Z,1.00
2019-03-13T18:31:36.109Z,1.00
2019-03-13T18:34:05.596Z,0.70
2019-03-13T18:36:35.055Z,0.90
2019-03-13T18:39:05.046Z,0.60
2019-03-13T18:41:34.488Z,1.27
2019-03-13T18:44:03.913Z,0.90
2019-03-13T18:46:33.345Z,1.00
2019-03-13T18:49:02.781Z,1.00
2019-03-13T18:51:32.215Z,0.80
2019-03-13T18:54:01.633Z,1.40
2019-03-13T18:56:31.074Z,1.00
2019-03-13T18:59:00.492Z,0.80
2019-03-13T19:01:29.929Z,1.00
2019-03-13T19:03:59.350Z,1.03
2019-03-13T19:06:28.782Z,1.17
2019-03-13T19:08:58.210Z,1.40
2019-03-13T19:11:27.718Z,0.93
2019-03-13T19:13:58.349Z,1.20
2019-03-13T19:16:27.860Z,1.30
2019-03-13T19:18:57.284Z,1.10
2019-03-13T19:21:26.710Z,1.50
2019-03-13T19:23:56.136Z,1.30
2019-03-13T19:26:25.577Z,1.20
2019-03-13T19:28:54.994Z,0.87
2019-03-13T19:31:24.430Z,1.23
2019-03-13T19:33:53.872Z,1.07
2019-03-13T19:36:23.306Z,1.00
2019-03-13T19:38:52.722Z,1.07
2019-03-13T19:41:22.155Z,1.10
2019-03-13T19:43:51.576Z,1.07
2019-03-13T19:46:21.006Z,0.90
2019-03-13T19:48:50.438Z,0.93
2019-03-13T19:51:19.861Z,0.83
2019-03-13T19:53:49.289Z,1.00
2019-03-13T19:56:18.723Z,0.87
2019-03-13T19:58:48.144Z,0.80
2019-03-13T20:01:17.579Z,0.80
2019-03-13T20:03:55.047Z,1.00
2019-03-13T20:06:18.158Z,0.80
2019-03-13T20:08:47.583Z,1.07
2019-03-13T20:11:17.010Z,0.60
2019-03-13T20:13:46.433Z,0.70
2019-03-13T20:16:15.868Z,0.70
2019-03-13T20:18:45.290Z,1.10
2019-03-13T20:21:14.790Z,0.80
2019-03-13T20:23:44.216Z,0.87
2019-03-13T20:26:13.638Z,0.87
2019-03-13T20:28:46.006Z,0.77
2019-03-13T20:31:14.224Z,1.00
2019-03-13T20:33:43.641Z,0.80
2019-03-13T20:36:13.065Z,0.80
2019-03-13T20:38:42.500Z,1.10
2019-03-13T20:41:11.926Z,0.90
2019-03-13T20:43:41.444Z,0.70
2019-03-13T20:46:10.857Z,0.80
2019-03-13T20:48:40.295Z,0.60
2019-03-13T20:51:09.778Z,0.50
2019-03-13T20:53:39.191Z,0.63
2019-03-13T20:56:08.618Z,0.63
2019-03-13T20:58:38.047Z,0.53
2019-03-13T21:01:07.549Z,0.43
2019-03-13T21:03:37.018Z,0.60
2019-03-13T21:06:06.446Z,0.60
2019-03-13T21:08:35.874Z,0.77
2019-03-13T21:11:05.294Z,0.53
2019-03-13T21:13:34.741Z,0.60
2019-03-13T21:16:04.184Z,0.70
2019-03-13T21:18:33.608Z,0.60
2019-03-13T21:21:03.039Z,0.37
2019-03-13T21:23:32.471Z,0.60
2019-03-13T21:26:01.902Z,0.60
2019-03-13T21:28:31.322Z,0.67
2019-03-13T21:31:03.775Z,0.60
2019-03-13T21:33:31.900Z,0.67
2019-03-13T21:36:01.321Z,0.80
2019-03-13T21:38:30.746Z,0.60
2019-03-13T21:41:00.175Z,0.80
2019-03-13T21:43:29.605Z,0.60
2019-03-13T21:45:59.041Z,0.70
2019-03-13T21:48:28.478Z,0.90
2019-03-13T21:50:58.663Z,1.10
2019-03-13T21:53:28.104Z,0.97
2019-03-13T21:55:57.600Z,1.00
2019-03-13T21:58:27.108Z,1.00
2019-03-13T22:00:56.481Z,1.03
2019-03-13T22:03:29.796Z,0.90
2019-03-13T22:05:57.111Z,1.00
2019-03-13T22:08:26.540Z,1.00
2019-03-13T22:10:55.960Z,1.00
2019-03-13T22:13:25.392Z,0.90
2019-03-13T22:15:54.813Z,1.00
2019-03-13T22:18:24.493Z,1.00
2019-03-13T22:20:53.914Z,1.00
2019-03-13T22:23:23.350Z,1.20
2019-03-13T22:25:52.832Z,0.90
2019-03-13T22:28:22.250Z,1.03
2019-03-13T22:30:51.668Z,0.90
2019-03-13T22:33:21.439Z,1.00
2019-03-13T22:35:50.853Z,1.10
2019-03-13T22:38:20.300Z,1.30
2019-03-13T22:40:49.708Z,1.23
2019-03-13T22:43:19.141Z,1.33
2019-03-13T22:45:48.563Z,1.20
2019-03-13T22:48:17.989Z,1.20
2019-03-13T22:50:47.415Z,1.20
2019-03-13T22:53:16.849Z,1.30
2019-03-13T22:55:46.273Z,0.90
2019-03-13T22:58:15.703Z,1.20
2019-03-13T23:00:52.506Z,0.93
2019-03-13T23:03:24.027Z,1.50
2019-03-13T23:05:53.517Z,0.93
2019-03-13T23:08:23.017Z,1.30
2019-03-13T23:10:52.441Z,1.40
2019-03-13T23:13:21.879Z,1.03
2019-03-13T23:15:51.371Z,0.90
2019-03-13T23:18:20.801Z,1.00
2019-03-13T23:20:50.231Z,1.20
2019-03-13T23:23:19.664Z,1.17
2019-03-13T23:25:49.088Z,1.70
2019-03-13T23:28:18.516Z,1.20
2019-03-13T23:30:47.943Z,1.30
2019-03-13T23:33:17.375Z,1.20
2019-03-13T23:35:46.787Z,1.10
2019-03-13T23:38:16.221Z,1.10
2019-03-13T23:40:45.659Z,1.30
2019-03-13T23:43:15.093Z,1.00
2019-03-13T23:45:44.519Z,0.83
2019-03-13T23:48:13.956Z,0.90
2019-03-13T23:50:43.378Z,1.20
2019-03-13T23:53:12.816Z,1.03
2019-03-13T23:55:42.288Z,0.70
2019-03-13T23:58:11.757Z,0.80
